AAL830 KDFW-KMKE
Flight info
| Callsign | AAL830 |
|---|---|
| Flight time | 1h 48m |
| Altitude | 37000 |
| Route | AKUNA9 MLC SGF WELTS SEXTN LEEDN GOPAC3 |
| Aircraft | B38M/M-SDE1FGHILORVWXY/HB1 |
Departure
| Time | 2026-05-05 16:13 |
|---|---|
| Airport | Dallas Fort Worth International Airport (KDFW) |
Arrival
| Time | 2026-05-05 18:02 |
|---|---|
| Airport | General Mitchell International Airport (KMKE) |
| Time | Latitude | Longitude | Altitude | Speed | Heading |
|---|---|---|---|---|---|
| 2026-05-05 15:51 | 32.90035 | -97.03676 | 624 ft | 0 kts | 195° |
| 2026-05-05 16:03 | 32.90059 | -97.03672 | 628 ft | 4 kts | 176° |
| 2026-05-05 16:03 | 32.90085 | -97.03678 | 625 ft | 4 kts | 153° |
| 2026-05-05 16:03 | 32.90105 | -97.03697 | 625 ft | 4 kts | 121° |
| 2026-05-05 16:03 | 32.90111 | -97.03717 | 629 ft | 0 kts | 90° |
| 2026-05-05 16:06 | 32.90111 | -97.03716 | 629 ft | 0 kts | 90° |
| 2026-05-05 16:06 | 32.90112 | -97.03689 | 625 ft | 8 kts | 86° |
| 2026-05-05 16:06 | 32.90113 | -97.03579 | 618 ft | 17 kts | 89° |
| 2026-05-05 16:07 | 32.90113 | -97.03430 | 618 ft | 15 kts | 91° |
| 2026-05-05 16:07 | 32.90112 | -97.03375 | 618 ft | 5 kts | 89° |
| 2026-05-05 16:07 | 32.90132 | -97.03324 | 618 ft | 10 kts | 35° |
| 2026-05-05 16:07 | 32.90209 | -97.03313 | 623 ft | 13 kts | 360° |
| 2026-05-05 16:08 | 32.90312 | -97.03313 | 624 ft | 17 kts | 0° |
| 2026-05-05 16:08 | 32.90444 | -97.03313 | 625 ft | 20 kts | 0° |
| 2026-05-05 16:08 | 32.90581 | -97.03312 | 625 ft | 19 kts | 1° |
| 2026-05-05 16:08 | 32.90718 | -97.03311 | 622 ft | 20 kts | 0° |
| 2026-05-05 16:09 | 32.90835 | -97.03311 | 621 ft | 17 kts | 360° |
| 2026-05-05 16:09 | 32.90955 | -97.03310 | 623 ft | 16 kts | 2° |
| 2026-05-05 16:09 | 32.91064 | -97.03274 | 625 ft | 17 kts | 2° |
| 2026-05-05 16:09 | 32.91188 | -97.03274 | 623 ft | 20 kts | 0° |
| 2026-05-05 16:10 | 32.91334 | -97.03273 | 624 ft | 22 kts | 0° |
| 2026-05-05 16:10 | 32.91480 | -97.03272 | 625 ft | 16 kts | 0° |
| 2026-05-05 16:10 | 32.91557 | -97.03252 | 620 ft | 10 kts | 53° |
| 2026-05-05 16:10 | 32.91564 | -97.03160 | 618 ft | 12 kts | 91° |
| 2026-05-05 16:11 | 32.91564 | -97.03104 | 618 ft | 0 kts | 89° |
| 2026-05-05 16:11 | 32.91510 | -97.02991 | 625 ft | 0 kts | 179° |
| 2026-05-05 16:12 | 32.91397 | -97.02991 | 623 ft | 51 kts | 180° |
| 2026-05-05 16:13 | 32.88397 | -97.02973 | 1509 ft | 188 kts | 181° |
| 2026-05-05 16:13 | 32.87080 | -97.02913 | 2156 ft | 193 kts | 182° |
| 2026-05-05 16:13 | 32.85681 | -97.02711 | 2735 ft | 217 kts | 174° |
| 2026-05-05 16:14 | 32.82519 | -97.01367 | 3930 ft | 257 kts | 168° |
| 2026-05-05 16:14 | 32.79090 | -96.99647 | 5525 ft | 280 kts | 146° |
| 2026-05-05 16:15 | 32.77046 | -96.95645 | 7284 ft | 295 kts | 112° |
| 2026-05-05 16:15 | 32.76624 | -96.90640 | 8675 ft | 317 kts | 88° |
| 2026-05-05 16:16 | 32.77403 | -96.85455 | 10230 ft | 325 kts | 57° |
| 2026-05-05 16:16 | 32.80930 | -96.82193 | 11254 ft | 331 kts | 8° |
| 2026-05-05 16:17 | 32.85526 | -96.81034 | 12649 ft | 340 kts | 2° |
| 2026-05-05 16:17 | 32.87863 | -96.80902 | 13441 ft | 337 kts | 352° |
| 2026-05-05 16:18 | 32.92606 | -96.80908 | 14873 ft | 345 kts | 352° |
| 2026-05-05 16:18 | 32.95024 | -96.80907 | 15558 ft | 350 kts | 351° |
| 2026-05-05 16:18 | 32.99948 | -96.80958 | 16946 ft | 356 kts | 349° |
| 2026-05-05 16:19 | 33.02436 | -96.81039 | 17626 ft | 360 kts | 349° |
| 2026-05-05 16:19 | 33.04957 | -96.81117 | 18221 ft | 365 kts | 349° |
| 2026-05-05 16:19 | 33.10024 | -96.81269 | 19420 ft | 369 kts | 348° |
| 2026-05-05 16:20 | 33.15183 | -96.81422 | 20629 ft | 373 kts | 348° |
| 2026-05-05 16:20 | 33.20398 | -96.81577 | 21788 ft | 377 kts | 347° |
| 2026-05-05 16:21 | 33.25672 | -96.81734 | 22926 ft | 381 kts | 347° |
| 2026-05-05 16:22 | 33.33700 | -96.81972 | 24315 ft | 389 kts | 346° |
| 2026-05-05 16:22 | 33.39139 | -96.82134 | 25150 ft | 394 kts | 346° |
| 2026-05-05 16:23 | 33.44702 | -96.81933 | 25977 ft | 419 kts | 2° |
| 2026-05-05 16:23 | 33.47501 | -96.80673 | 26470 ft | 441 kts | 17° |
| 2026-05-05 16:23 | 33.52981 | -96.77229 | 27191 ft | 449 kts | 17° |
| 2026-05-05 16:24 | 33.55751 | -96.75467 | 27550 ft | 453 kts | 17° |
| 2026-05-05 16:24 | 33.58535 | -96.73685 | 27940 ft | 455 kts | 17° |
| 2026-05-05 16:24 | 33.64155 | -96.70077 | 28661 ft | 461 kts | 17° |
| 2026-05-05 16:25 | 33.66987 | -96.68256 | 29021 ft | 463 kts | 17° |
| 2026-05-05 16:25 | 33.72703 | -96.64576 | 29734 ft | 469 kts | 17° |
| 2026-05-05 16:25 | 33.75586 | -96.62718 | 29995 ft | 471 kts | 17° |
| 2026-05-05 16:26 | 33.81354 | -96.58996 | 30588 ft | 476 kts | 17° |
| 2026-05-05 16:26 | 33.87214 | -96.55210 | 31199 ft | 480 kts | 17° |
| 2026-05-05 16:27 | 33.90161 | -96.53303 | 31490 ft | 482 kts | 17° |
| 2026-05-05 16:27 | 33.93123 | -96.51386 | 31784 ft | 485 kts | 17° |
| 2026-05-05 16:27 | 33.96140 | -96.49431 | 32063 ft | 487 kts | 17° |
| 2026-05-05 16:27 | 33.99085 | -96.47521 | 32366 ft | 489 kts | 17° |
| 2026-05-05 16:28 | 34.02085 | -96.45576 | 32662 ft | 491 kts | 17° |
| 2026-05-05 16:28 | 34.05095 | -96.43620 | 32974 ft | 493 kts | 17° |
| 2026-05-05 16:28 | 34.08052 | -96.41434 | 33217 ft | 504 kts | 22° |
| 2026-05-05 16:28 | 34.10028 | -96.39846 | 33424 ft | 505 kts | 22° |
| 2026-05-05 16:29 | 34.13909 | -96.36703 | 33722 ft | 509 kts | 22° |
| 2026-05-05 16:29 | 34.16849 | -96.34308 | 33950 ft | 511 kts | 22° |
| 2026-05-05 16:29 | 34.18841 | -96.32683 | 34150 ft | 511 kts | 22° |
| 2026-05-05 16:29 | 34.21775 | -96.30289 | 34455 ft | 510 kts | 22° |
| 2026-05-05 16:30 | 34.24709 | -96.27892 | 34762 ft | 509 kts | 22° |
| 2026-05-05 16:30 | 34.27639 | -96.25497 | 35051 ft | 508 kts | 22° |
| 2026-05-05 16:30 | 34.30565 | -96.23103 | 35348 ft | 507 kts | 22° |
| 2026-05-05 16:30 | 34.33487 | -96.20711 | 35679 ft | 506 kts | 22° |
| 2026-05-05 16:31 | 34.36400 | -96.18323 | 35959 ft | 506 kts | 22° |
| 2026-05-05 16:31 | 34.39311 | -96.15936 | 36220 ft | 505 kts | 22° |
| 2026-05-05 16:31 | 34.42180 | -96.13581 | 36474 ft | 504 kts | 22° |
| 2026-05-05 16:31 | 34.45119 | -96.11166 | 36702 ft | 504 kts | 22° |
| 2026-05-05 16:32 | 34.50880 | -96.06425 | 36709 ft | 500 kts | 22° |
| 2026-05-05 16:32 | 34.56617 | -96.01698 | 36710 ft | 498 kts | 21° |
| 2026-05-05 16:33 | 34.62351 | -95.96964 | 36723 ft | 498 kts | 21° |
| 2026-05-05 16:33 | 34.68059 | -95.92244 | 36727 ft | 497 kts | 21° |
| 2026-05-05 16:34 | 34.73783 | -95.87503 | 36736 ft | 498 kts | 21° |
| 2026-05-05 16:34 | 34.79501 | -95.82759 | 36742 ft | 498 kts | 21° |
| 2026-05-05 16:35 | 34.85192 | -95.77929 | 36731 ft | 505 kts | 26° |
| 2026-05-05 16:35 | 34.90722 | -95.72655 | 36737 ft | 504 kts | 25° |
| 2026-05-05 16:36 | 34.96262 | -95.67445 | 36740 ft | 502 kts | 25° |
| 2026-05-05 16:36 | 35.01782 | -95.62251 | 36716 ft | 501 kts | 25° |
| 2026-05-05 16:37 | 35.07302 | -95.57049 | 36718 ft | 501 kts | 25° |
| 2026-05-05 16:37 | 35.12817 | -95.51843 | 36772 ft | 501 kts | 25° |
| 2026-05-05 16:38 | 35.18297 | -95.46661 | 36725 ft | 502 kts | 25° |
| 2026-05-05 16:38 | 35.23812 | -95.41435 | 36728 ft | 503 kts | 25° |
| 2026-05-05 16:39 | 35.29332 | -95.36196 | 36731 ft | 502 kts | 25° |
| 2026-05-05 16:39 | 35.34851 | -95.30950 | 36738 ft | 502 kts | 25° |
| 2026-05-05 16:40 | 35.40349 | -95.25713 | 36764 ft | 500 kts | 25° |
| 2026-05-05 16:40 | 35.45836 | -95.20477 | 36731 ft | 501 kts | 25° |
| 2026-05-05 16:41 | 35.51338 | -95.15217 | 36743 ft | 501 kts | 25° |
| 2026-05-05 16:41 | 35.56835 | -95.09954 | 36745 ft | 501 kts | 25° |
| 2026-05-05 16:42 | 35.62335 | -95.04678 | 36756 ft | 502 kts | 25° |
| 2026-05-05 16:42 | 35.67831 | -94.99396 | 36754 ft | 501 kts | 25° |
| 2026-05-05 16:43 | 35.73334 | -94.94100 | 36763 ft | 502 kts | 25° |
| 2026-05-05 16:43 | 35.78779 | -94.88849 | 36735 ft | 499 kts | 25° |
| 2026-05-05 16:44 | 35.84247 | -94.83564 | 36741 ft | 500 kts | 26° |
| 2026-05-05 16:44 | 35.89717 | -94.78270 | 36744 ft | 500 kts | 26° |
| 2026-05-05 16:45 | 35.95180 | -94.72972 | 36745 ft | 500 kts | 26° |
| 2026-05-05 16:45 | 36.00646 | -94.67662 | 36762 ft | 500 kts | 26° |
| 2026-05-05 16:46 | 36.06104 | -94.62351 | 36777 ft | 500 kts | 26° |
| 2026-05-05 16:46 | 36.11579 | -94.57017 | 36785 ft | 504 kts | 26° |
| 2026-05-05 16:47 | 36.17123 | -94.51601 | 36825 ft | 511 kts | 26° |
| 2026-05-05 16:47 | 36.22716 | -94.46127 | 36790 ft | 516 kts | 26° |
| 2026-05-05 16:48 | 36.28345 | -94.40607 | 36796 ft | 516 kts | 26° |
| 2026-05-05 16:48 | 36.33976 | -94.35077 | 36791 ft | 516 kts | 26° |
| 2026-05-05 16:49 | 36.39601 | -94.29541 | 36813 ft | 516 kts | 26° |
| 2026-05-05 16:49 | 36.45215 | -94.24004 | 36826 ft | 516 kts | 26° |
| 2026-05-05 16:50 | 36.50840 | -94.18448 | 36820 ft | 516 kts | 27° |
| 2026-05-05 16:50 | 36.56445 | -94.12900 | 36755 ft | 514 kts | 27° |
| 2026-05-05 16:51 | 36.62033 | -94.07358 | 36790 ft | 514 kts | 27° |
| 2026-05-05 16:51 | 36.67623 | -94.01805 | 36807 ft | 514 kts | 27° |
| 2026-05-05 16:52 | 36.73212 | -93.96241 | 36827 ft | 515 kts | 27° |
| 2026-05-05 16:52 | 36.78806 | -93.90662 | 36841 ft | 515 kts | 27° |
| 2026-05-05 16:53 | 36.84403 | -93.85069 | 36841 ft | 515 kts | 27° |
| 2026-05-05 16:53 | 36.89999 | -93.79465 | 36842 ft | 515 kts | 27° |
| 2026-05-05 16:54 | 36.95571 | -93.73876 | 36825 ft | 512 kts | 27° |
| 2026-05-05 16:54 | 37.01115 | -93.68303 | 36823 ft | 512 kts | 27° |
| 2026-05-05 16:55 | 37.06666 | -93.62713 | 36842 ft | 513 kts | 27° |
| 2026-05-05 16:55 | 37.12220 | -93.57110 | 36861 ft | 513 kts | 27° |
| 2026-05-05 16:56 | 37.17775 | -93.51497 | 36874 ft | 513 kts | 28° |
| 2026-05-05 16:56 | 37.23321 | -93.45881 | 36877 ft | 514 kts | 28° |
| 2026-05-05 16:57 | 37.28880 | -93.40242 | 36862 ft | 514 kts | 28° |
| 2026-05-05 16:57 | 37.34446 | -93.34587 | 36857 ft | 514 kts | 27° |
| 2026-05-05 16:58 | 37.40155 | -93.29345 | 36874 ft | 509 kts | 24° |
| 2026-05-05 16:58 | 37.45835 | -93.24119 | 36884 ft | 510 kts | 25° |
| 2026-05-05 16:59 | 37.51562 | -93.18827 | 36877 ft | 511 kts | 25° |
| 2026-05-05 16:59 | 37.57288 | -93.13524 | 36869 ft | 511 kts | 25° |
| 2026-05-05 17:00 | 37.63015 | -93.08210 | 36890 ft | 511 kts | 25° |
| 2026-05-05 17:00 | 37.68740 | -93.02889 | 36939 ft | 510 kts | 25° |
| 2026-05-05 17:01 | 37.74455 | -92.97565 | 36887 ft | 510 kts | 25° |
| 2026-05-05 17:01 | 37.80172 | -92.92230 | 36903 ft | 511 kts | 25° |
| 2026-05-05 17:02 | 37.85889 | -92.86884 | 36886 ft | 511 kts | 25° |
| 2026-05-05 17:02 | 37.91607 | -92.81526 | 36897 ft | 511 kts | 25° |
| 2026-05-05 17:03 | 37.97335 | -92.76149 | 36922 ft | 514 kts | 25° |
| 2026-05-05 17:03 | 38.03072 | -92.70753 | 36920 ft | 514 kts | 25° |
| 2026-05-05 17:04 | 38.08819 | -92.65336 | 36906 ft | 514 kts | 25° |
| 2026-05-05 17:04 | 38.14536 | -92.59936 | 36910 ft | 512 kts | 25° |
| 2026-05-05 17:05 | 38.20254 | -92.54526 | 36911 ft | 513 kts | 24° |
| 2026-05-05 17:05 | 38.25984 | -92.49091 | 36911 ft | 514 kts | 24° |
| 2026-05-05 17:06 | 38.31717 | -92.43643 | 36900 ft | 514 kts | 25° |
| 2026-05-05 17:06 | 38.37412 | -92.38222 | 36909 ft | 514 kts | 25° |
| 2026-05-05 17:07 | 38.43142 | -92.32755 | 36923 ft | 515 kts | 25° |
| 2026-05-05 17:07 | 38.48875 | -92.27276 | 36925 ft | 514 kts | 25° |
| 2026-05-05 17:08 | 38.54578 | -92.21812 | 36942 ft | 512 kts | 25° |
| 2026-05-05 17:08 | 38.60266 | -92.16352 | 36943 ft | 512 kts | 25° |
| 2026-05-05 17:09 | 38.65964 | -92.10873 | 36982 ft | 513 kts | 24° |
| 2026-05-05 17:09 | 38.71658 | -92.05384 | 36936 ft | 513 kts | 24° |
| 2026-05-05 17:10 | 38.77352 | -91.99886 | 36940 ft | 513 kts | 24° |
| 2026-05-05 17:10 | 38.83050 | -91.94372 | 36932 ft | 513 kts | 24° |
| 2026-05-05 17:11 | 38.88747 | -91.88849 | 36974 ft | 513 kts | 24° |
| 2026-05-05 17:11 | 38.94419 | -91.83340 | 36955 ft | 511 kts | 24° |
| 2026-05-05 17:12 | 39.00084 | -91.77803 | 36974 ft | 515 kts | 27° |
| 2026-05-05 17:12 | 39.02695 | -91.74547 | 36997 ft | 528 kts | 34° |
| 2026-05-05 17:12 | 39.05254 | -91.71153 | 36986 ft | 528 kts | 34° |
| 2026-05-05 17:13 | 39.10375 | -91.64372 | 36988 ft | 529 kts | 34° |
| 2026-05-05 17:13 | 39.15455 | -91.57614 | 36976 ft | 528 kts | 34° |
| 2026-05-05 17:14 | 39.20557 | -91.50813 | 36965 ft | 528 kts | 34° |
| 2026-05-05 17:14 | 39.25639 | -91.44024 | 36930 ft | 526 kts | 34° |
| 2026-05-05 17:15 | 39.30719 | -91.37222 | 36926 ft | 526 kts | 34° |
| 2026-05-05 17:15 | 39.35796 | -91.30411 | 36978 ft | 526 kts | 34° |
| 2026-05-05 17:16 | 39.40853 | -91.23607 | 36945 ft | 524 kts | 34° |
| 2026-05-05 17:16 | 39.45904 | -91.16799 | 36975 ft | 525 kts | 34° |
| 2026-05-05 17:17 | 39.50100 | -91.11130 | 36999 ft | 524 kts | 34° |
| 2026-05-05 17:17 | 39.55122 | -91.04334 | 37011 ft | 523 kts | 34° |
| 2026-05-05 17:18 | 39.60147 | -90.97519 | 37049 ft | 523 kts | 34° |
| 2026-05-05 17:18 | 39.65160 | -90.90701 | 36977 ft | 522 kts | 34° |
| 2026-05-05 17:19 | 39.70172 | -90.83872 | 36980 ft | 523 kts | 34° |
| 2026-05-05 17:19 | 39.75183 | -90.77029 | 36975 ft | 523 kts | 34° |
| 2026-05-05 17:20 | 39.80182 | -90.70187 | 36963 ft | 521 kts | 34° |
| 2026-05-05 17:20 | 39.85219 | -90.63454 | 36941 ft | 511 kts | 29° |
| 2026-05-05 17:21 | 39.90504 | -90.57256 | 36928 ft | 513 kts | 30° |
| 2026-05-05 17:22 | 39.98383 | -90.47802 | 36934 ft | 513 kts | 30° |
| 2026-05-05 17:22 | 40.03628 | -90.41477 | 36959 ft | 513 kts | 30° |
| 2026-05-05 17:23 | 40.08839 | -90.35183 | 36929 ft | 514 kts | 30° |
| 2026-05-05 17:23 | 40.14075 | -90.28844 | 36919 ft | 513 kts | 31° |
| 2026-05-05 17:24 | 40.19306 | -90.22498 | 36911 ft | 513 kts | 31° |
| 2026-05-05 17:24 | 40.24526 | -90.16149 | 36927 ft | 513 kts | 31° |
| 2026-05-05 17:25 | 40.29754 | -90.09778 | 36918 ft | 514 kts | 31° |
| 2026-05-05 17:25 | 40.34990 | -90.03383 | 36922 ft | 515 kts | 31° |
| 2026-05-05 17:26 | 40.40221 | -89.96977 | 36918 ft | 514 kts | 31° |
| 2026-05-05 17:26 | 40.45432 | -89.90585 | 36918 ft | 513 kts | 31° |
| 2026-05-05 17:27 | 40.50643 | -89.84178 | 36939 ft | 513 kts | 31° |
| 2026-05-05 17:27 | 40.55848 | -89.77763 | 36940 ft | 513 kts | 31° |
| 2026-05-05 17:28 | 40.61057 | -89.71330 | 36941 ft | 513 kts | 31° |
| 2026-05-05 17:28 | 40.66257 | -89.64891 | 36944 ft | 514 kts | 31° |
| 2026-05-05 17:29 | 40.71458 | -89.58439 | 36939 ft | 513 kts | 31° |
| 2026-05-05 17:29 | 40.76658 | -89.51972 | 36935 ft | 514 kts | 31° |
| 2026-05-05 17:30 | 40.81854 | -89.45496 | 36899 ft | 514 kts | 31° |
| 2026-05-05 17:30 | 40.87049 | -89.39007 | 36905 ft | 514 kts | 32° |
| 2026-05-05 17:31 | 40.92241 | -89.32506 | 36949 ft | 514 kts | 32° |
| 2026-05-05 17:31 | 40.97434 | -89.25990 | 36898 ft | 515 kts | 32° |
| 2026-05-05 17:32 | 41.02626 | -89.19459 | 36899 ft | 514 kts | 32° |
| 2026-05-05 17:32 | 41.07794 | -89.12945 | 36908 ft | 513 kts | 32° |
| 2026-05-05 17:33 | 41.12917 | -89.06469 | 36453 ft | 510 kts | 32° |
| 2026-05-05 17:33 | 41.15481 | -89.03224 | 35811 ft | 509 kts | 32° |
| 2026-05-05 17:33 | 41.18037 | -88.99986 | 35111 ft | 510 kts | 33° |
| 2026-05-05 17:33 | 41.20608 | -88.96725 | 34360 ft | 512 kts | 33° |
| 2026-05-05 17:34 | 41.23185 | -88.93452 | 33571 ft | 514 kts | 34° |
| 2026-05-05 17:34 | 41.25765 | -88.90170 | 32915 ft | 513 kts | 34° |
| 2026-05-05 17:34 | 41.28331 | -88.86904 | 32476 ft | 507 kts | 35° |
| 2026-05-05 17:34 | 41.30860 | -88.83681 | 32092 ft | 502 kts | 36° |
| 2026-05-05 17:35 | 41.33371 | -88.80477 | 31611 ft | 498 kts | 36° |
| 2026-05-05 17:35 | 41.35864 | -88.77294 | 31075 ft | 496 kts | 37° |
| 2026-05-05 17:35 | 41.38348 | -88.74118 | 30475 ft | 494 kts | 37° |
| 2026-05-05 17:35 | 41.40815 | -88.70960 | 29929 ft | 491 kts | 38° |
| 2026-05-05 17:36 | 41.43276 | -88.67808 | 29343 ft | 489 kts | 38° |
| 2026-05-05 17:36 | 41.45717 | -88.64678 | 28811 ft | 485 kts | 38° |
| 2026-05-05 17:36 | 41.48138 | -88.61569 | 28309 ft | 481 kts | 38° |
| 2026-05-05 17:36 | 41.50527 | -88.58497 | 27809 ft | 476 kts | 38° |
| 2026-05-05 17:37 | 41.52897 | -88.55448 | 27307 ft | 471 kts | 38° |
| 2026-05-05 17:37 | 41.55216 | -88.52462 | 26824 ft | 466 kts | 38° |
| 2026-05-05 17:37 | 41.57539 | -88.49467 | 26367 ft | 463 kts | 38° |
| 2026-05-05 17:37 | 41.59881 | -88.46445 | 25862 ft | 460 kts | 38° |
| 2026-05-05 17:38 | 41.62173 | -88.43484 | 25398 ft | 456 kts | 38° |
| 2026-05-05 17:38 | 41.64442 | -88.40550 | 24946 ft | 452 kts | 38° |
| 2026-05-05 17:38 | 41.66693 | -88.37636 | 24490 ft | 450 kts | 39° |
| 2026-05-05 17:38 | 41.68969 | -88.34793 | 24019 ft | 444 kts | 32° |
| 2026-05-05 17:39 | 41.71588 | -88.32793 | 23548 ft | 425 kts | 11° |
| 2026-05-05 17:39 | 41.74398 | -88.32052 | 23159 ft | 401 kts | 352° |
| 2026-05-05 17:39 | 41.77103 | -88.32110 | 22818 ft | 391 kts | 349° |
| 2026-05-05 17:39 | 41.79811 | -88.32223 | 22378 ft | 388 kts | 348° |
| 2026-05-05 17:40 | 41.82494 | -88.32364 | 21976 ft | 384 kts | 348° |
| 2026-05-05 17:40 | 41.85154 | -88.32517 | 21577 ft | 381 kts | 348° |
| 2026-05-05 17:40 | 41.87787 | -88.32676 | 21193 ft | 377 kts | 348° |
| 2026-05-05 17:40 | 41.90401 | -88.32836 | 20803 ft | 374 kts | 348° |
| 2026-05-05 17:41 | 41.92993 | -88.32997 | 20426 ft | 372 kts | 348° |
| 2026-05-05 17:41 | 41.95566 | -88.33158 | 20045 ft | 369 kts | 348° |
| 2026-05-05 17:41 | 41.98122 | -88.33319 | 19699 ft | 366 kts | 348° |
| 2026-05-05 17:41 | 42.00664 | -88.33479 | 19305 ft | 365 kts | 348° |
| 2026-05-05 17:42 | 42.03191 | -88.33638 | 18926 ft | 363 kts | 348° |
| 2026-05-05 17:42 | 42.05703 | -88.33796 | 18549 ft | 361 kts | 348° |
| 2026-05-05 17:42 | 42.08204 | -88.33954 | 18180 ft | 358 kts | 348° |
| 2026-05-05 17:42 | 42.10686 | -88.34111 | 17766 ft | 356 kts | 348° |
| 2026-05-05 17:43 | 42.13155 | -88.34268 | 17380 ft | 354 kts | 348° |
| 2026-05-05 17:43 | 42.15598 | -88.34423 | 17017 ft | 350 kts | 348° |
| 2026-05-05 17:43 | 42.18016 | -88.34576 | 16695 ft | 346 kts | 348° |
| 2026-05-05 17:43 | 42.20409 | -88.34727 | 16415 ft | 343 kts | 348° |
| 2026-05-05 17:44 | 42.22782 | -88.34878 | 16084 ft | 341 kts | 348° |
| 2026-05-05 17:44 | 42.25139 | -88.35087 | 15708 ft | 338 kts | 345° |
| 2026-05-05 17:44 | 42.27471 | -88.35366 | 15364 ft | 335 kts | 346° |
| 2026-05-05 17:44 | 42.29787 | -88.35635 | 15038 ft | 332 kts | 346° |
| 2026-05-05 17:45 | 42.32081 | -88.35898 | 14697 ft | 329 kts | 346° |
| 2026-05-05 17:45 | 42.34356 | -88.36158 | 14363 ft | 327 kts | 346° |
| 2026-05-05 17:45 | 42.36608 | -88.36467 | 13996 ft | 323 kts | 343° |
| 2026-05-05 17:45 | 42.38832 | -88.36861 | 13634 ft | 322 kts | 343° |
| 2026-05-05 17:46 | 42.41043 | -88.37245 | 13313 ft | 319 kts | 342° |
| 2026-05-05 17:46 | 42.43217 | -88.37617 | 12933 ft | 310 kts | 342° |
| 2026-05-05 17:46 | 42.45317 | -88.37974 | 12609 ft | 299 kts | 342° |
| 2026-05-05 17:46 | 42.47357 | -88.38323 | 12299 ft | 293 kts | 342° |
| 2026-05-05 17:47 | 42.49378 | -88.38669 | 12010 ft | 293 kts | 343° |
| 2026-05-05 17:47 | 42.51398 | -88.39014 | 11710 ft | 293 kts | 343° |
| 2026-05-05 17:47 | 42.53391 | -88.39355 | 11398 ft | 292 kts | 343° |
| 2026-05-05 17:47 | 42.55405 | -88.39702 | 11076 ft | 292 kts | 343° |
| 2026-05-05 17:48 | 42.57417 | -88.40054 | 10742 ft | 291 kts | 344° |
| 2026-05-05 17:48 | 42.59397 | -88.40400 | 10447 ft | 283 kts | 344° |
| 2026-05-05 17:48 | 42.61333 | -88.40738 | 10186 ft | 278 kts | 345° |
| 2026-05-05 17:48 | 42.63242 | -88.41072 | 9994 ft | 277 kts | 345° |
| 2026-05-05 17:49 | 42.65138 | -88.41404 | 9707 ft | 274 kts | 345° |
| 2026-05-05 17:49 | 42.67028 | -88.41736 | 9375 ft | 273 kts | 345° |
| 2026-05-05 17:49 | 42.68894 | -88.42105 | 9052 ft | 271 kts | 343° |
| 2026-05-05 17:49 | 42.70755 | -88.42543 | 8709 ft | 271 kts | 343° |
| 2026-05-05 17:50 | 42.72601 | -88.42974 | 8426 ft | 268 kts | 343° |
| 2026-05-05 17:50 | 42.74469 | -88.43129 | 8129 ft | 275 kts | 0° |
| 2026-05-05 17:50 | 42.76363 | -88.42728 | 7832 ft | 274 kts | 2° |
| 2026-05-05 17:50 | 42.78242 | -88.42326 | 7560 ft | 272 kts | 3° |
| 2026-05-05 17:51 | 42.80098 | -88.41777 | 7247 ft | 277 kts | 17° |
| 2026-05-05 17:51 | 42.81692 | -88.40244 | 6895 ft | 288 kts | 46° |
| 2026-05-05 17:51 | 42.82660 | -88.37850 | 6610 ft | 291 kts | 69° |
| 2026-05-05 17:51 | 42.83295 | -88.35239 | 6317 ft | 289 kts | 69° |
| 2026-05-05 17:52 | 42.83939 | -88.32669 | 5984 ft | 284 kts | 69° |
| 2026-05-05 17:52 | 42.84572 | -88.30158 | 5649 ft | 276 kts | 69° |
| 2026-05-05 17:52 | 42.85178 | -88.27713 | 5350 ft | 271 kts | 73° |
| 2026-05-05 17:52 | 42.85336 | -88.25180 | 5028 ft | 269 kts | 98° |
| 2026-05-05 17:53 | 42.84768 | -88.22790 | 4659 ft | 264 kts | 122° |
| 2026-05-05 17:53 | 42.83619 | -88.20884 | 4232 ft | 258 kts | 141° |
| 2026-05-05 17:53 | 42.82349 | -88.19181 | 3883 ft | 256 kts | 130° |
| 2026-05-05 17:53 | 42.81275 | -88.17278 | 3579 ft | 252 kts | 130° |
| 2026-05-05 17:54 | 42.80211 | -88.15376 | 3352 ft | 253 kts | 130° |
| 2026-05-05 17:54 | 42.79144 | -88.13473 | 3113 ft | 252 kts | 130° |
| 2026-05-05 17:54 | 42.78087 | -88.11589 | 3016 ft | 249 kts | 130° |
| 2026-05-05 17:54 | 42.77024 | -88.09722 | 3006 ft | 251 kts | 130° |
| 2026-05-05 17:55 | 42.75949 | -88.07853 | 3029 ft | 248 kts | 130° |
| 2026-05-05 17:55 | 42.74916 | -88.06041 | 3054 ft | 238 kts | 130° |
| 2026-05-05 17:55 | 42.73915 | -88.04273 | 3023 ft | 234 kts | 130° |
| 2026-05-05 17:55 | 42.72932 | -88.02517 | 2984 ft | 233 kts | 130° |
| 2026-05-05 17:56 | 42.71951 | -88.00762 | 2998 ft | 233 kts | 130° |
| 2026-05-05 17:56 | 42.71099 | -87.98899 | 2970 ft | 234 kts | 109° |
| 2026-05-05 17:56 | 42.70954 | -87.96784 | 2951 ft | 219 kts | 77° |
| 2026-05-05 17:56 | 42.71574 | -87.94979 | 2979 ft | 208 kts | 44° |
| 2026-05-05 17:57 | 42.72713 | -87.93832 | 3036 ft | 204 kts | 22° |
| 2026-05-05 17:57 | 42.74023 | -87.93127 | 3092 ft | 201 kts | 11° |
| 2026-05-05 17:57 | 42.75380 | -87.92768 | 3056 ft | 197 kts | 2° |
| 2026-05-05 17:57 | 42.76736 | -87.92534 | 3030 ft | 196 kts | 2° |
| 2026-05-05 17:58 | 42.78085 | -87.92315 | 2970 ft | 195 kts | 2° |
| 2026-05-05 17:58 | 42.79437 | -87.92088 | 2992 ft | 196 kts | 2° |
| 2026-05-05 17:58 | 42.80787 | -87.91856 | 3000 ft | 196 kts | 2° |
| 2026-05-05 17:58 | 42.82124 | -87.91629 | 2918 ft | 195 kts | 3° |
| 2026-05-05 17:59 | 42.83423 | -87.91406 | 2680 ft | 182 kts | 1° |
| 2026-05-05 17:59 | 42.84656 | -87.91197 | 2434 ft | 175 kts | 2° |
| 2026-05-05 17:59 | 42.85812 | -87.90998 | 2266 ft | 158 kts | 2° |
| 2026-05-05 17:59 | 42.86847 | -87.90823 | 2039 ft | 145 kts | 1° |
| 2026-05-05 18:00 | 42.87849 | -87.90655 | 1837 ft | 146 kts | 1° |
| 2026-05-05 18:00 | 42.88864 | -87.90465 | 1618 ft | 148 kts | 2° |
| 2026-05-05 18:00 | 42.89868 | -87.90290 | 1409 ft | 144 kts | 360° |
| 2026-05-05 18:00 | 42.90863 | -87.90128 | 1229 ft | 143 kts | 358° |
| 2026-05-05 18:01 | 42.91858 | -87.89976 | 986 ft | 144 kts | 2° |
| 2026-05-05 18:01 | 42.92859 | -87.89790 | 792 ft | 145 kts | 358° |
| 2026-05-05 18:01 | 42.93839 | -87.89620 | 686 ft | 133 kts | 355° |
| 2026-05-05 18:01 | 42.94592 | -87.89504 | 687 ft | 86 kts | 7° |
| 2026-05-05 18:02 | 42.95036 | -87.89426 | 684 ft | 42 kts | 7° |
| 2026-05-05 18:02 | 42.95212 | -87.89445 | 685 ft | 18 kts | 315° |
| 2026-05-05 18:02 | 42.95225 | -87.89533 | 691 ft | 8 kts | 223° |
| 2026-05-05 18:02 | 42.95164 | -87.89554 | 685 ft | 10 kts | 188° |
| 2026-05-05 18:03 | 42.95116 | -87.89564 | 689 ft | 0 kts | 188° |
| 2026-05-05 18:03 | 42.95112 | -87.89564 | 689 ft | 3 kts | 186° |
| 2026-05-05 18:03 | 42.95048 | -87.89574 | 687 ft | 16 kts | 187° |
| 2026-05-05 18:04 | 42.94977 | -87.89609 | 686 ft | 9 kts | 238° |
| 2026-05-05 18:04 | 42.94972 | -87.89702 | 691 ft | 12 kts | 269° |
| 2026-05-05 18:04 | 42.95013 | -87.89795 | 691 ft | 13 kts | 328° |
| 2026-05-05 18:04 | 42.95093 | -87.89878 | 682 ft | 16 kts | 314° |
| 2026-05-05 18:05 | 42.95161 | -87.89978 | 688 ft | 11 kts | 313° |
| 2026-05-05 18:05 | 42.95177 | -87.90001 | 689 ft | 0 kts | 314° |
| 2026-05-05 18:06 | 42.95181 | -87.90011 | 691 ft | 4 kts | 301° |
| 2026-05-05 18:06 | 42.95185 | -87.90028 | 691 ft | 6 kts | 272° |
| 2026-05-05 18:06 | 42.95128 | -87.90066 | 690 ft | 4 kts | 195° |
| 2026-05-05 18:06 | 42.95124 | -87.90068 | 689 ft | 0 kts | 195° |
| 2026-05-05 18:07 | 42.95125 | -87.90068 | 689 ft | 0 kts | 195° |